Clam Gulch, Alaska
Current Conditions -  °F | °C
As of 5:36 AM on Thursday 30 Oct 2014 (Local Time) from PASX Reporting Station
Overcast Overcast  
Wind Chill: 18°   Ceiling: 3900
Heat Index: 18°   Visibility: 10mi
Dew Point: 16°   Wind: 0mph
Humidity: 93%   Direction: NA
Pressure: 29.63"   Gusts: NA
Location:  60.25°N, 151.38°W
Report Text: PASX 301336Z AUTO 00000KT 10SM OVC039 M08/M09 A2963 RMK AO1
Loading
Personal Weather Stations






























Interactive Weather Map
Tropical Storm Tracking
New forecast layout! Learn more

10-Day Weather Forecast

Advertisements
Track Severe Weather on mobile